PWSweather.com
Personal Weather Stations
Station Observations
EDDERTON
Rossshire, EddertonGB IV191LA

RossshireEddertonGB IV191LA

Lat: 57.838, Lon: -4.176

Elevation: 60

Station Type: Davis Vantage PRO2 Wireless With Solar Sensor

http://www.ardmore-lodge.com

Latest ConditionsUpdated 6:45:00 PM GMT Friday, May 6, 2016
Currently Today's Max Today's Min Today's Average
Temperature 51.4°F10.8°C 60.5°F15.8°C 38.2°F3.4°C 50.6°F10.3°C
Dew Point 43.8°F6.6°C 48.0°F8.9°C 35.3°F1.8°C 41.8°F5.4°C
Winds 3.5 mph NE5.6 kmh NE 9.2 mph N14.8 kmh N - 3.0 mph 4.8 kmh
Wind Gusts 4.6 mph7.4 kmh 13.8 mph22.2 kmh - -
Humidity 75% 89% 51% 73%
Pressure 29.97 in1014.9 mb 29.98 in1015.2 mb 29.93 in1013.5 mb -
Precipitation - 0.01 in0.3 mm - -
Hour Temp Dew Point Humidity Winds Wind Gusts Pressure Precip Precip Rate Daily Precip Total
06:45 PM 51.4°F10.8°C 43.8°F6.6°C 75% 3.5 mph NE5.6 kmh NE 4.6 mph7.4 kmh 29.97 in1014.9 mb - 0.00 in0.0 mm 0.01 in0.3 mm
06:30 PM 51.4°F10.8°C 43.4°F6.3°C 74% 4.6 mph NE7.4 kmh NE 5.8 mph9.3 kmh 29.98 in1015.2 mb - 0.00 in0.0 mm 0.01 in0.3 mm
06:15 PM 51.8°F11.0°C 43.4°F6.3°C 73% 3.5 mph NE5.6 kmh NE 4.6 mph7.4 kmh 29.97 in1014.9 mb - 0.00 in0.0 mm 0.01 in0.3 mm
06:00 PM 52.7°F11.5°C 43.9°F6.6°C 72% 6.9 mph NE11.1 kmh NE 10.4 mph16.7 kmh 29.97 in1014.9 mb - 0.00 in0.0 mm 0.01 in0.3 mm
05:45 PM 53.6°F12.0°C 44.4°F6.9°C 71% 2.3 mph NE3.7 kmh NE 3.5 mph5.6 kmh 29.97 in1014.9 mb - 0.00 in0.0 mm 0.01 in0.3 mm
05:30 PM 54.9°F12.7°C 45.7°F7.6°C 71% 3.5 mph NNE5.6 kmh NNE 5.8 mph9.3 kmh 29.96 in1014.6 mb - 0.00 in0.0 mm 0.01 in0.3 mm
05:15 PM 57.2°F14.0°C 45.1°F7.3°C 64% 9.2 mph N14.8 kmh N 13.8 mph22.2 kmh 29.96 in1014.6 mb - 0.00 in0.0 mm 0.01 in0.3 mm
05:00 PM 57.8°F14.3°C 45.3°F7.4°C 63% 6.9 mph N11.1 kmh N 11.5 mph18.5 kmh 29.95 in1014.2 mb - 0.00 in0.0 mm 0.01 in0.3 mm
04:45 PM 56.9°F13.8°C 44.0°F6.7°C 62% 5.8 mph NNW9.3 kmh NNW 10.4 mph16.7 kmh 29.95 in1014.2 mb - 0.00 in0.0 mm 0.01 in0.3 mm
04:30 PM 57.6°F14.2°C 43.8°F6.6°C 60% 5.8 mph E9.3 kmh E 10.4 mph16.7 kmh 29.95 in1014.2 mb - 0.00 in0.0 mm 0.01 in0.3 mm
04:15 PM 56.1°F13.4°C 44.0°F6.7°C 64% 4.6 mph E7.4 kmh E 5.8 mph9.3 kmh 29.95 in1014.2 mb - 0.00 in0.0 mm 0.01 in0.3 mm
04:00 PM 55.8°F13.2°C 44.2°F6.8°C 65% 3.5 mph E5.6 kmh E 4.6 mph7.4 kmh 29.95 in1014.2 mb - 0.00 in0.0 mm 0.01 in0.3 mm
03:45 PM 55.4°F13.0°C 43.8°F6.6°C 65% 3.5 mph E5.6 kmh E 4.6 mph7.4 kmh 29.95 in1014.2 mb - 0.00 in0.0 mm 0.01 in0.3 mm
03:30 PM 55.2°F12.9°C 44.8°F7.1°C 68% 2.3 mph E3.7 kmh E 3.5 mph5.6 kmh 29.95 in1014.2 mb - 0.00 in0.0 mm 0.01 in0.3 mm
03:15 PM 55.9°F13.3°C 45.8°F7.7°C 69% 3.5 mph E5.6 kmh E 5.8 mph9.3 kmh 29.95 in1014.2 mb - 0.00 in0.0 mm 0.01 in0.3 mm
03:00 PM 57.0°F13.9°C 44.5°F6.9°C 63% 1.2 mph E1.9 kmh E 2.3 mph3.7 kmh 29.95 in1014.2 mb - 0.00 in0.0 mm 0.01 in0.3 mm
02:45 PM 58.1°F14.5°C 46.8°F8.2°C 66% 3.5 mph E5.6 kmh E 5.8 mph9.3 kmh 29.94 in1013.9 mb - 0.00 in0.0 mm 0.01 in0.3 mm
02:30 PM 57.9°F14.4°C 47.0°F8.3°C 67% Calm Calm 1.2 mph1.9 kmh 29.94 in1013.9 mb - 0.00 in0.0 mm 0.01 in0.3 mm
02:15 PM 58.9°F14.9°C 48.0°F8.9°C 67% Calm Calm 1.2 mph1.9 kmh 29.93 in1013.5 mb - 0.00 in0.0 mm 0.01 in0.3 mm
02:00 PM 60.5°F15.8°C 46.1°F7.8°C 59% 2.3 mph E3.7 kmh E 5.8 mph9.3 kmh 29.94 in1013.9 mb - 0.00 in0.0 mm 0.01 in0.3 mm
01:45 PM 60.2°F15.7°C 47.9°F8.8°C 64% 1.2 mph E1.9 kmh E 3.5 mph5.6 kmh 29.94 in1013.9 mb - 0.00 in0.0 mm 0.01 in0.3 mm
01:30 PM 58.2°F14.6°C 46.1°F7.8°C 64% 3.5 mph E5.6 kmh E 6.9 mph11.1 kmh 29.94 in1013.9 mb - 0.00 in0.0 mm 0.01 in0.3 mm
01:15 PM 58.6°F14.8°C 44.8°F7.1°C 60% 3.5 mph N5.6 kmh N 5.8 mph9.3 kmh 29.94 in1013.9 mb - 0.00 in0.0 mm 0.01 in0.3 mm
01:00 PM 59.2°F15.1°C 43.0°F6.1°C 55% 3.5 mph N5.6 kmh N 4.6 mph7.4 kmh 29.93 in1013.5 mb - 0.00 in0.0 mm 0.01 in0.3 mm
12:45 PM 59.7°F15.4°C 41.5°F5.3°C 51% 3.5 mph NE5.6 kmh NE 3.5 mph5.6 kmh 29.94 in1013.9 mb - 0.00 in0.0 mm 0.01 in0.3 mm
12:30 PM 58.9°F14.9°C 42.8°F6.0°C 55% 2.3 mph NE3.7 kmh NE 4.6 mph7.4 kmh 29.94 in1013.9 mb - 0.00 in0.0 mm 0.01 in0.3 mm
12:15 PM 58.1°F14.5°C 42.9°F6.1°C 57% 3.5 mph NE5.6 kmh NE 3.5 mph5.6 kmh 29.94 in1013.9 mb - 0.00 in0.0 mm 0.01 in0.3 mm
12:00 PM 57.6°F14.2°C 42.9°F6.1°C 58% 2.3 mph NE3.7 kmh NE 3.5 mph5.6 kmh 29.94 in1013.9 mb - 0.00 in0.0 mm 0.01 in0.3 mm
11:45 AM 56.8°F13.8°C 42.6°F5.9°C 59% 2.3 mph ENE3.7 kmh ENE 3.5 mph5.6 kmh 29.94 in1013.9 mb - 0.00 in0.0 mm 0.01 in0.3 mm
11:30 AM 56.7°F13.7°C 43.8°F6.6°C 62% 1.2 mph ENE1.9 kmh ENE 2.3 mph3.7 kmh 29.95 in1014.2 mb - 0.00 in0.0 mm 0.01 in0.3 mm
11:15 AM 57.1°F13.9°C 44.2°F6.8°C 62% 2.3 mph ENE3.7 kmh ENE 4.6 mph7.4 kmh 29.95 in1014.2 mb - 0.00 in0.0 mm 0.01 in0.3 mm
11:00 AM 57.0°F13.9°C 45.7°F7.6°C 66% 2.3 mph ENE3.7 kmh ENE 3.5 mph5.6 kmh 29.95 in1014.2 mb - 0.01 in0.3 mm 0.01 in0.3 mm
10:45 AM 58.2°F14.6°C 44.4°F6.9°C 60% 2.3 mph ENE3.7 kmh ENE 3.5 mph5.6 kmh 29.95 in1014.2 mb - 0.01 in0.3 mm 0.01 in0.3 mm
10:30 AM 59.0°F15.0°C 45.6°F7.6°C 61% 2.3 mph ENE3.7 kmh ENE 3.5 mph5.6 kmh 29.95 in1014.2 mb - 0.00 in0.0 mm 0.00 in0.0 mm
10:15 AM 59.4°F15.2°C 45.9°F7.7°C 61% 2.3 mph ENE3.7 kmh ENE 3.5 mph5.6 kmh 29.95 in1014.2 mb - 0.00 in0.0 mm 0.00 in0.0 mm
10:00 AM 58.5°F14.7°C 46.0°F7.8°C 63% 1.2 mph ENE1.9 kmh ENE 3.5 mph5.6 kmh 29.95 in1014.2 mb - 0.00 in0.0 mm 0.00 in0.0 mm
09:45 AM 57.3°F14.1°C 45.2°F7.3°C 64% 1.2 mph NE1.9 kmh NE 3.5 mph5.6 kmh 29.96 in1014.6 mb - 0.00 in0.0 mm 0.00 in0.0 mm
09:30 AM 56.6°F13.7°C 44.6°F7.0°C 64% 2.3 mph ENE3.7 kmh ENE 3.5 mph5.6 kmh 29.96 in1014.6 mb - 0.00 in0.0 mm 0.00 in0.0 mm
09:15 AM 56.5°F13.6°C 44.1°F6.7°C 63% 2.3 mph NE3.7 kmh NE 4.6 mph7.4 kmh 29.96 in1014.6 mb - 0.00 in0.0 mm 0.00 in0.0 mm
09:00 AM 55.9°F13.3°C 43.9°F6.6°C 64% 1.2 mph NE1.9 kmh NE 2.3 mph3.7 kmh 29.96 in1014.6 mb - 0.00 in0.0 mm 0.00 in0.0 mm
08:45 AM 55.0°F12.8°C 43.4°F6.3°C 65% 2.3 mph NE3.7 kmh NE 4.6 mph7.4 kmh 29.97 in1014.9 mb - 0.00 in0.0 mm 0.00 in0.0 mm
08:30 AM 54.6°F12.6°C 43.0°F6.1°C 65% 1.2 mph NNE1.9 kmh NNE 3.5 mph5.6 kmh 29.97 in1014.9 mb - 0.00 in0.0 mm 0.00 in0.0 mm
08:15 AM 54.0°F12.2°C 43.3°F6.3°C 67% 1.2 mph NNW1.9 kmh NNW 3.5 mph5.6 kmh 29.97 in1014.9 mb - 0.00 in0.0 mm 0.00 in0.0 mm
08:00 AM 53.0°F11.7°C 43.1°F6.2°C 69% 1.2 mph NNW1.9 kmh NNW 3.5 mph5.6 kmh 29.97 in1014.9 mb - 0.00 in0.0 mm 0.00 in0.0 mm
07:45 AM 51.7°F10.9°C 43.0°F6.1°C 72% Calm Calm 2.3 mph3.7 kmh 29.97 in1014.9 mb - 0.00 in0.0 mm 0.00 in0.0 mm
07:30 AM 50.8°F10.4°C 42.8°F6.0°C 74% Calm Calm 2.3 mph3.7 kmh 29.97 in1014.9 mb - 0.00 in0.0 mm 0.00 in0.0 mm
07:15 AM 51.3°F10.7°C 42.6°F5.9°C 72% 2.3 mph NNW3.7 kmh NNW 3.5 mph5.6 kmh 29.97 in1014.9 mb - 0.00 in0.0 mm 0.00 in0.0 mm
07:00 AM 50.5°F10.3°C 42.5°F5.8°C 74% 2.3 mph NNW3.7 kmh NNW 3.5 mph5.6 kmh 29.97 in1014.9 mb - 0.00 in0.0 mm 0.00 in0.0 mm
06:45 AM 49.5°F9.7°C 42.6°F5.9°C 77% 3.5 mph NW5.6 kmh NW 4.6 mph7.4 kmh 29.97 in1014.9 mb - 0.00 in0.0 mm 0.00 in0.0 mm
06:30 AM 47.8°F8.8°C 42.6°F5.9°C 82% 1.2 mph NW1.9 kmh NW 3.5 mph5.6 kmh 29.97 in1014.9 mb - 0.00 in0.0 mm 0.00 in0.0 mm
06:15 AM 45.3°F7.4°C 41.4°F5.2°C 86% 1.2 mph NW1.9 kmh NW 3.5 mph5.6 kmh 29.97 in1014.9 mb - 0.00 in0.0 mm 0.00 in0.0 mm
06:00 AM 43.2°F6.2°C 39.6°F4.2°C 87% Calm Calm -- 29.97 in1014.9 mb - 0.00 in0.0 mm 0.00 in0.0 mm
05:45 AM 41.6°F5.3°C 38.3°F3.5°C 88% 1.2 mph NW1.9 kmh NW 2.3 mph3.7 kmh 29.97 in1014.9 mb - 0.00 in0.0 mm 0.00 in0.0 mm
05:30 AM 40.7°F4.8°C 37.7°F3.2°C 89% Calm Calm 2.3 mph3.7 kmh 29.98 in1015.2 mb - 0.00 in0.0 mm 0.00 in0.0 mm
05:15 AM 39.4°F4.1°C 36.4°F2.4°C 89% 3.5 mph WNW5.6 kmh WNW 9.2 mph14.8 kmh 29.97 in1014.9 mb - 0.00 in0.0 mm 0.00 in0.0 mm
05:00 AM 38.8°F3.8°C 35.9°F2.2°C 89% 4.6 mph WSW7.4 kmh WSW 5.8 mph9.3 kmh 29.97 in1014.9 mb - 0.00 in0.0 mm 0.00 in0.0 mm
04:45 AM 38.9°F3.8°C 35.6°F2.0°C 88% 2.3 mph WSW3.7 kmh WSW 3.5 mph5.6 kmh 29.98 in1015.2 mb - 0.00 in0.0 mm 0.00 in0.0 mm
04:30 AM 39.0°F3.9°C 35.7°F2.1°C 88% 3.5 mph SW5.6 kmh SW 4.6 mph7.4 kmh 29.97 in1014.9 mb - 0.00 in0.0 mm 0.00 in0.0 mm
04:15 AM 39.7°F4.3°C 36.7°F2.6°C 89% 6.9 mph SW11.1 kmh SW 9.2 mph14.8 kmh 29.97 in1014.9 mb - 0.00 in0.0 mm 0.00 in0.0 mm
04:00 AM 38.2°F3.4°C 35.3°F1.8°C 89% 4.6 mph SW7.4 kmh SW 9.2 mph14.8 kmh 29.97 in1014.9 mb - 0.00 in0.0 mm 0.00 in0.0 mm
03:45 AM 38.9°F3.8°C 35.6°F2.0°C 88% 2.3 mph SW3.7 kmh SW 3.5 mph5.6 kmh 29.98 in1015.2 mb - 0.00 in0.0 mm 0.00 in0.0 mm
03:30 AM 39.4°F4.1°C 36.1°F2.3°C 88% 3.5 mph SW5.6 kmh SW 5.8 mph9.3 kmh 29.98 in1015.2 mb - 0.00 in0.0 mm 0.00 in0.0 mm
03:15 AM 39.5°F4.2°C 36.2°F2.3°C 88% 3.5 mph SW5.6 kmh SW 3.5 mph5.6 kmh 29.97 in1014.9 mb - 0.00 in0.0 mm 0.00 in0.0 mm
03:00 AM 39.7°F4.3°C 36.2°F2.3°C 87% 2.3 mph SW3.7 kmh SW 3.5 mph5.6 kmh 29.97 in1014.9 mb - 0.00 in0.0 mm 0.00 in0.0 mm
02:45 AM 40.5°F4.7°C 37.0°F2.8°C 87% 3.5 mph SW5.6 kmh SW 5.8 mph9.3 kmh 29.97 in1014.9 mb - 0.00 in0.0 mm 0.00 in0.0 mm
02:30 AM 40.3°F4.6°C 36.7°F2.6°C 87% 3.5 mph SW5.6 kmh SW 3.5 mph5.6 kmh 29.97 in1014.9 mb - 0.00 in0.0 mm 0.00 in0.0 mm
02:15 AM 40.5°F4.7°C 36.6°F2.6°C 86% 2.3 mph SW3.7 kmh SW 3.5 mph5.6 kmh 29.98 in1015.2 mb - 0.00 in0.0 mm 0.00 in0.0 mm
02:00 AM 41.7°F5.4°C 37.8°F3.2°C 86% 4.6 mph SW7.4 kmh SW 6.9 mph11.1 kmh 29.98 in1015.2 mb - 0.00 in0.0 mm 0.00 in0.0 mm
01:45 AM 42.0°F5.6°C 37.8°F3.2°C 85% 3.5 mph SW5.6 kmh SW 4.6 mph7.4 kmh 29.98 in1015.2 mb - 0.00 in0.0 mm 0.00 in0.0 mm
01:30 AM 41.5°F5.3°C 38.2°F3.4°C 88% 6.9 mph SW11.1 kmh SW 11.5 mph18.5 kmh 29.98 in1015.2 mb - 0.00 in0.0 mm 0.00 in0.0 mm
01:15 AM 40.6°F4.8°C 36.7°F2.6°C 86% 1.2 mph SW1.9 kmh SW 2.3 mph3.7 kmh 29.98 in1015.2 mb - 0.00 in0.0 mm 0.00 in0.0 mm
01:00 AM 42.1°F5.6°C 38.2°F3.4°C 86% 3.5 mph SW5.6 kmh SW 4.6 mph7.4 kmh 29.98 in1015.2 mb - 0.00 in0.0 mm 0.00 in0.0 mm
12:45 AM 41.1°F5.1°C 37.3°F2.9°C 86% 5.8 mph SSW9.3 kmh SSW 9.2 mph14.8 kmh 29.98 in1015.2 mb - 0.00 in0.0 mm 0.00 in0.0 mm
12:30 AM 41.2°F5.1°C 37.3°F2.9°C 86% 8.1 mph SSW13.0 kmh SSW 10.4 mph16.7 kmh 29.98 in1015.2 mb - 0.00 in0.0 mm 0.00 in0.0 mm
12:15 AM 40.9°F4.9°C 37.3°F2.9°C 87% 8.1 mph SSW13.0 kmh SSW 12.7 mph20.4 kmh 29.98 in1015.2 mb - 0.00 in0.0 mm 0.00 in0.0 mm
12:00 AM 40.4°F4.7°C 36.5°F2.5°C 86% 2.3 mph SW3.7 kmh SW 3.5 mph5.6 kmh 29.98 in1015.2 mb - 0.00 in0.0 mm 0.00 in0.0 mm